createdAt,value
2019-03-09T00:00:09.737Z,956.84
2019-03-09T00:02:36.038Z,956.84
2019-03-09T00:05:02.382Z,956.92
2019-03-09T00:07:28.664Z,956.82
2019-03-09T00:09:54.969Z,956.74
2019-03-09T00:12:21.292Z,956.81
2019-03-09T00:14:47.591Z,956.76
2019-03-09T00:17:13.972Z,956.84
2019-03-09T00:19:40.241Z,956.80
2019-03-09T00:22:06.550Z,956.77
2019-03-09T00:24:32.859Z,956.72
2019-03-09T00:26:59.169Z,956.73
2019-03-09T00:29:25.504Z,956.69
2019-03-09T00:31:51.796Z,956.63
2019-03-09T00:34:18.119Z,956.75
2019-03-09T00:36:44.423Z,956.73
2019-03-09T00:39:10.772Z,956.71
2019-03-09T00:41:37.036Z,956.81
2019-03-09T00:44:03.353Z,956.72
2019-03-09T00:46:29.726Z,956.62
2019-03-09T00:48:56.038Z,956.61
2019-03-09T00:51:22.345Z,956.58
2019-03-09T00:53:48.681Z,956.56
2019-03-09T00:56:14.984Z,956.57
2019-03-09T00:58:41.295Z,956.50
2019-03-09T01:01:07.604Z,956.48
2019-03-09T01:03:33.902Z,956.47
2019-03-09T01:06:00.275Z,956.46
2019-03-09T01:08:26.583Z,956.49
2019-03-09T01:10:52.894Z,956.56
2019-03-09T01:13:19.194Z,956.57
2019-03-09T01:15:45.502Z,956.59
2019-03-09T01:18:11.815Z,956.61
2019-03-09T01:20:38.119Z,956.61
2019-03-09T01:23:04.433Z,956.69
2019-03-09T01:25:30.749Z,956.68
2019-03-09T01:27:57.065Z,956.75
2019-03-09T01:30:23.371Z,956.82
2019-03-09T01:32:49.775Z,956.78
2019-03-09T01:35:16.003Z,956.78
2019-03-09T01:37:42.312Z,956.78
2019-03-09T01:40:08.638Z,956.73
2019-03-09T01:42:34.925Z,956.76
2019-03-09T01:45:01.240Z,956.76
2019-03-09T01:47:27.548Z,956.73
2019-03-09T01:49:53.867Z,956.68
2019-03-09T01:52:20.192Z,956.68
2019-03-09T01:54:46.521Z,956.73
2019-03-09T01:57:12.828Z,956.72
2019-03-09T01:59:39.209Z,956.75
2019-03-09T02:02:05.742Z,956.82
2019-03-09T02:04:32.090Z,956.75
2019-03-09T02:06:58.405Z,956.78
2019-03-09T02:09:24.707Z,956.80
2019-03-09T02:11:51.035Z,956.85
2019-03-09T02:14:17.344Z,956.83
2019-03-09T02:16:43.656Z,956.78
2019-03-09T02:19:09.965Z,956.82
2019-03-09T02:21:36.270Z,956.81
2019-03-09T02:24:02.580Z,956.85
2019-03-09T02:26:28.891Z,956.86
2019-03-09T02:28:55.203Z,956.85
2019-03-09T02:31:21.509Z,956.83
2019-03-09T02:33:47.817Z,956.77
2019-03-09T02:36:14.170Z,956.77
2019-03-09T02:38:40.470Z,956.75
2019-03-09T02:41:06.786Z,956.81
2019-03-09T02:43:33.080Z,956.84
2019-03-09T02:45:59.388Z,956.80
2019-03-09T02:48:25.695Z,956.84
2019-03-09T02:50:52.013Z,956.90
2019-03-09T02:53:18.323Z,956.92
2019-03-09T02:55:44.632Z,956.98
2019-03-09T02:58:10.937Z,957.00
2019-03-09T03:00:37.243Z,957.02
2019-03-09T03:03:03.551Z,956.98
2019-03-09T03:05:29.874Z,957.00
2019-03-09T03:07:56.184Z,957.00
2019-03-09T03:10:22.494Z,957.01
2019-03-09T03:12:48.802Z,957.05
2019-03-09T03:15:15.107Z,957.15
2019-03-09T03:17:41.424Z,957.18
2019-03-09T03:20:07.736Z,957.20
2019-03-09T03:22:34.046Z,957.23
2019-03-09T03:25:00.462Z,957.30
2019-03-09T03:27:26.695Z,957.26
2019-03-09T03:29:52.999Z,957.36
2019-03-09T03:32:19.305Z,957.33
2019-03-09T03:34:45.622Z,957.26
2019-03-09T03:37:11.964Z,957.29
2019-03-09T03:39:38.248Z,957.31
2019-03-09T03:42:04.563Z,957.18
2019-03-09T03:44:30.903Z,957.17
2019-03-09T03:46:57.198Z,957.26
2019-03-09T03:49:23.512Z,957.20
2019-03-09T03:51:49.828Z,957.26
2019-03-09T03:54:16.125Z,957.25
2019-03-09T03:56:42.439Z,957.44
2019-03-09T03:59:08.751Z,957.44
2019-03-09T04:01:35.082Z,957.38
2019-03-09T04:04:01.386Z,957.36
2019-03-09T04:06:27.698Z,957.40
2019-03-09T04:08:54.001Z,957.42
2019-03-09T04:11:20.310Z,957.51
2019-03-09T04:13:46.626Z,957.53
2019-03-09T04:16:12.952Z,957.50
2019-03-09T04:18:39.250Z,957.51
2019-03-09T04:21:05.589Z,957.49
2019-03-09T04:23:31.928Z,957.42
2019-03-09T04:25:58.226Z,957.55
2019-03-09T04:28:24.532Z,957.55
2019-03-09T04:30:50.843Z,957.56
2019-03-09T04:33:17.149Z,957.60
2019-03-09T04:35:43.471Z,957.59
2019-03-09T04:38:09.779Z,957.59
2019-03-09T04:40:36.089Z,957.53
2019-03-09T04:43:02.394Z,957.60
2019-03-09T04:45:28.717Z,957.64
2019-03-09T04:47:55.031Z,957.72
2019-03-09T04:50:21.349Z,957.73
2019-03-09T04:52:47.650Z,957.75
2019-03-09T04:55:13.958Z,957.75
2019-03-09T04:57:40.264Z,957.78
2019-03-09T05:00:06.582Z,957.81
2019-03-09T05:02:32.915Z,957.71
2019-03-09T05:04:59.196Z,957.76
2019-03-09T05:07:25.503Z,957.76
2019-03-09T05:09:51.819Z,957.81
2019-03-09T05:12:18.121Z,957.79
2019-03-09T05:14:44.424Z,957.75
2019-03-09T05:17:10.736Z,957.82
2019-03-09T05:19:37.058Z,957.87
2019-03-09T05:22:06.227Z,957.99
2019-03-09T05:24:30.304Z,958.06
2019-03-09T05:26:56.611Z,958.20
2019-03-09T05:29:25.596Z,958.19
2019-03-09T05:31:54.115Z,958.16
2019-03-09T05:34:18.613Z,958.25
2019-03-09T05:36:45.190Z,958.22
2019-03-09T05:39:11.512Z,958.31
2019-03-09T05:41:37.904Z,958.31
2019-03-09T05:44:04.276Z,958.34
2019-03-09T05:46:30.583Z,958.30
2019-03-09T05:48:56.893Z,958.31
2019-03-09T05:51:23.211Z,958.19
2019-03-09T05:53:49.587Z,958.15
2019-03-09T05:56:15.896Z,958.19
2019-03-09T05:58:42.204Z,958.22
2019-03-09T06:01:08.548Z,958.31
2019-03-09T06:03:34.867Z,958.29
2019-03-09T06:06:01.179Z,958.37
2019-03-09T06:08:27.492Z,958.41
2019-03-09T06:10:53.805Z,958.39
2019-03-09T06:13:20.119Z,958.42
2019-03-09T06:15:46.417Z,958.41
2019-03-09T06:18:12.735Z,958.42
2019-03-09T06:20:39.040Z,958.48
2019-03-09T06:23:05.536Z,958.45
2019-03-09T06:25:31.849Z,958.35
2019-03-09T06:27:58.166Z,958.44
2019-03-09T06:30:24.471Z,958.46
2019-03-09T06:32:50.777Z,958.42
2019-03-09T06:35:17.096Z,958.46
2019-03-09T06:37:43.402Z,958.45
2019-03-09T06:40:09.715Z,958.42
2019-03-09T06:42:36.025Z,958.50
2019-03-09T06:45:02.371Z,958.59
2019-03-09T06:47:28.665Z,958.54
2019-03-09T06:49:54.977Z,958.56
2019-03-09T06:52:21.291Z,958.55
2019-03-09T06:54:47.602Z,958.59
2019-03-09T06:57:14.257Z,958.60
2019-03-09T06:59:40.233Z,958.58
2019-03-09T07:02:06.583Z,958.63
2019-03-09T07:04:32.896Z,958.57
2019-03-09T07:06:59.205Z,958.68
2019-03-09T07:09:25.757Z,958.59
2019-03-09T07:11:52.070Z,958.61
2019-03-09T07:14:18.388Z,958.63
2019-03-09T07:16:44.692Z,958.63
2019-03-09T07:19:11.011Z,958.68
2019-03-09T07:21:37.395Z,958.71
2019-03-09T07:24:03.720Z,958.56
2019-03-09T07:26:30.011Z,958.68
2019-03-09T07:28:56.326Z,958.66
2019-03-09T07:31:22.647Z,958.62
2019-03-09T07:33:48.965Z,958.52
2019-03-09T07:36:15.278Z,958.54
2019-03-09T07:38:41.589Z,958.57
2019-03-09T07:41:07.901Z,958.60
2019-03-09T07:43:34.208Z,958.56
2019-03-09T07:46:00.520Z,958.52
2019-03-09T07:48:26.824Z,958.58
2019-03-09T07:50:53.178Z,958.64
2019-03-09T07:53:19.461Z,958.62
2019-03-09T07:55:45.774Z,958.55
2019-03-09T07:58:12.087Z,958.61
2019-03-09T08:00:38.401Z,958.56
2019-03-09T08:03:04.718Z,958.59
2019-03-09T08:05:31.023Z,958.56
2019-03-09T08:07:57.337Z,958.60
2019-03-09T08:10:23.656Z,958.47
2019-03-09T08:12:49.966Z,958.51
2019-03-09T08:15:16.276Z,958.50
2019-03-09T08:17:42.623Z,958.51
2019-03-09T08:20:08.937Z,958.53
2019-03-09T08:22:35.259Z,958.52
2019-03-09T08:25:01.645Z,958.55
2019-03-09T08:27:27.992Z,958.47
2019-03-09T08:29:54.343Z,958.47
2019-03-09T08:32:20.708Z,958.46
2019-03-09T08:34:47.032Z,958.39
2019-03-09T08:37:13.346Z,958.34
2019-03-09T08:39:39.680Z,958.32
2019-03-09T08:42:06.016Z,958.34
2019-03-09T08:44:32.323Z,958.28
2019-03-09T08:46:58.640Z,958.26
2019-03-09T08:49:24.957Z,958.19
2019-03-09T08:51:51.289Z,958.20
2019-03-09T08:54:17.571Z,958.20
2019-03-09T08:56:43.920Z,958.12
2019-03-09T08:59:10.225Z,958.09
2019-03-09T09:01:36.505Z,958.08
2019-03-09T09:04:02.813Z,958.02
2019-03-09T09:06:29.121Z,958.00
2019-03-09T09:08:55.433Z,958.02
2019-03-09T09:11:21.810Z,957.97
2019-03-09T09:13:48.121Z,957.96
2019-03-09T09:16:14.425Z,957.97
2019-03-09T09:18:40.731Z,957.94
2019-03-09T09:21:07.037Z,957.98
2019-03-09T09:23:33.347Z,957.94
2019-03-09T09:25:59.659Z,957.96
2019-03-09T09:28:25.977Z,957.95
2019-03-09T09:30:52.284Z,957.96
2019-03-09T09:33:18.632Z,957.95
2019-03-09T09:35:44.992Z,957.94
2019-03-09T09:38:11.333Z,957.93
2019-03-09T09:40:37.624Z,957.92
2019-03-09T09:43:03.934Z,957.84
2019-03-09T09:45:30.249Z,957.84
2019-03-09T09:47:56.558Z,957.77
2019-03-09T09:50:23.177Z,957.82
2019-03-09T09:52:49.493Z,957.83
2019-03-09T09:55:15.802Z,957.74
2019-03-09T09:57:42.113Z,957.73
2019-03-09T10:00:08.431Z,957.78
2019-03-09T10:02:35.714Z,957.76
2019-03-09T10:05:01.075Z,957.72
2019-03-09T10:07:27.391Z,957.69
2019-03-09T10:09:53.697Z,957.61
2019-03-09T10:12:20.009Z,957.65
2019-03-09T10:14:46.321Z,957.54
2019-03-09T10:17:12.638Z,957.56
2019-03-09T10:19:38.950Z,957.49
2019-03-09T10:22:05.311Z,957.47
2019-03-09T10:24:31.618Z,957.36
2019-03-09T10:26:57.926Z,957.39
2019-03-09T10:29:24.241Z,957.21
2019-03-09T10:31:50.602Z,957.21
2019-03-09T10:34:16.859Z,957.21
2019-03-09T10:36:43.176Z,957.19
2019-03-09T10:39:09.489Z,957.17
2019-03-09T10:41:35.799Z,957.21
2019-03-09T10:44:02.148Z,957.24
2019-03-09T10:46:28.458Z,957.18
2019-03-09T10:48:54.854Z,957.17
2019-03-09T10:51:21.161Z,956.97
2019-03-09T10:53:47.693Z,957.03
2019-03-09T10:56:13.984Z,956.93
2019-03-09T10:58:40.298Z,956.86
2019-03-09T11:01:06.608Z,956.90
2019-03-09T11:03:32.926Z,956.82
2019-03-09T11:05:59.238Z,956.72
2019-03-09T11:08:25.539Z,956.71
2019-03-09T11:10:51.848Z,956.67
2019-03-09T11:13:18.161Z,956.63
2019-03-09T11:15:44.502Z,956.65
2019-03-09T11:18:10.807Z,956.59
2019-03-09T11:20:37.117Z,956.44
2019-03-09T11:23:03.453Z,956.48
2019-03-09T11:25:29.894Z,956.52
2019-03-09T11:27:56.210Z,956.32
2019-03-09T11:30:22.543Z,956.32
2019-03-09T11:32:58.160Z,956.29
2019-03-09T11:35:24.472Z,956.19
2019-03-09T11:37:50.855Z,956.13
2019-03-09T11:40:17.098Z,956.10
2019-03-09T11:42:43.413Z,956.04
2019-03-09T11:45:09.731Z,955.91
2019-03-09T11:47:36.047Z,955.88
2019-03-09T11:50:02.358Z,955.80
2019-03-09T11:52:29.278Z,955.80
2019-03-09T11:54:54.981Z,955.88
2019-03-09T11:57:21.293Z,955.73
2019-03-09T11:59:47.619Z,955.68
2019-03-09T12:02:13.939Z,955.66
2019-03-09T12:04:46.747Z,955.57
2019-03-09T12:07:06.549Z,955.60
2019-03-09T12:09:32.855Z,955.59
2019-03-09T12:11:59.176Z,955.54
2019-03-09T12:14:25.482Z,955.51
2019-03-09T12:16:51.797Z,955.46
2019-03-09T12:19:18.111Z,955.40
2019-03-09T12:21:44.876Z,955.44
2019-03-09T12:24:16.477Z,955.42
2019-03-09T12:26:37.491Z,955.42
2019-03-09T12:29:04.097Z,955.32
2019-03-09T12:31:30.406Z,955.23
2019-03-09T12:33:56.752Z,955.30
2019-03-09T12:36:23.062Z,955.30
2019-03-09T12:38:49.379Z,955.21
2019-03-09T12:41:15.691Z,955.19
2019-03-09T12:43:42.003Z,955.25
2019-03-09T12:46:08.411Z,955.22
2019-03-09T12:48:34.725Z,955.17
2019-03-09T12:51:01.031Z,955.17
2019-03-09T12:53:27.341Z,955.11
2019-03-09T12:55:53.649Z,955.15
2019-03-09T12:58:19.968Z,955.09
2019-03-09T13:00:46.274Z,955.02
2019-03-09T13:03:12.591Z,954.98
2019-03-09T13:05:38.899Z,954.99
2019-03-09T13:08:05.225Z,954.96
2019-03-09T13:10:31.529Z,954.94
2019-03-09T13:12:57.917Z,954.93
2019-03-09T13:15:24.169Z,954.91
2019-03-09T13:17:50.477Z,954.93
2019-03-09T13:20:16.786Z,954.87
2019-03-09T13:22:43.094Z,954.91
2019-03-09T13:25:09.406Z,954.95
2019-03-09T13:27:35.716Z,954.78
2019-03-09T13:30:02.033Z,954.77
2019-03-09T13:32:28.380Z,954.77
2019-03-09T13:34:54.712Z,954.70
2019-03-09T13:37:21.057Z,954.71
2019-03-09T13:39:47.366Z,954.68
2019-03-09T13:42:13.636Z,954.62
2019-03-09T13:44:39.954Z,954.64
2019-03-09T13:47:06.322Z,954.59
2019-03-09T13:49:32.581Z,954.53
2019-03-09T13:51:58.959Z,954.57
2019-03-09T13:54:25.264Z,954.49
2019-03-09T13:56:51.575Z,954.53
2019-03-09T13:59:17.886Z,954.47
2019-03-09T14:01:44.236Z,954.43
2019-03-09T14:04:10.550Z,954.47
2019-03-09T14:06:36.856Z,954.41
2019-03-09T14:09:03.184Z,954.41
2019-03-09T14:11:29.516Z,954.34
2019-03-09T14:13:55.833Z,954.31
2019-03-09T14:16:22.147Z,954.28
2019-03-09T14:18:48.483Z,954.24
2019-03-09T14:21:14.793Z,954.22
2019-03-09T14:23:41.103Z,954.20
2019-03-09T14:26:07.410Z,954.13
2019-03-09T14:28:33.724Z,954.11
2019-03-09T14:31:00.040Z,954.11
2019-03-09T14:33:28.650Z,954.05
2019-03-09T14:35:52.666Z,954.05
2019-03-09T14:38:19.003Z,954.02
2019-03-09T14:40:45.341Z,954.00
2019-03-09T14:43:11.669Z,954.05
2019-03-09T14:45:37.973Z,954.04
2019-03-09T14:48:04.280Z,953.96
2019-03-09T14:50:30.635Z,953.96
2019-03-09T14:52:56.948Z,953.96
2019-03-09T14:55:23.258Z,953.93
2019-03-09T14:57:49.598Z,953.83
2019-03-09T15:00:15.904Z,953.87
2019-03-09T15:02:42.270Z,953.89
2019-03-09T15:05:08.607Z,953.81
2019-03-09T15:07:34.912Z,953.76
2019-03-09T15:10:01.228Z,953.79
2019-03-09T15:12:27.531Z,953.77
2019-03-09T15:14:53.869Z,953.67
2019-03-09T15:17:20.181Z,953.70
2019-03-09T15:19:46.496Z,953.70
2019-03-09T15:22:12.850Z,953.66
2019-03-09T15:24:39.121Z,953.62
2019-03-09T15:27:05.430Z,953.63
2019-03-09T15:29:32.771Z,953.60
2019-03-09T15:31:58.083Z,953.64
2019-03-09T15:34:24.392Z,953.66
2019-03-09T15:36:50.724Z,953.66
2019-03-09T15:39:17.071Z,953.72
2019-03-09T15:41:43.345Z,953.68
2019-03-09T15:44:09.656Z,953.66
2019-03-09T15:46:35.969Z,953.72
2019-03-09T15:49:02.278Z,953.67
2019-03-09T15:51:28.633Z,953.67
2019-03-09T15:53:54.913Z,953.70
2019-03-09T15:56:21.219Z,953.78
2019-03-09T15:58:47.589Z,953.69
2019-03-09T16:01:13.900Z,953.80
2019-03-09T16:03:40.287Z,953.82
2019-03-09T16:06:06.582Z,953.78
2019-03-09T16:08:32.882Z,953.76
2019-03-09T16:10:59.194Z,953.79
2019-03-09T16:13:25.501Z,953.81
2019-03-09T16:15:51.815Z,953.81
2019-03-09T16:18:18.169Z,953.80
2019-03-09T16:20:44.480Z,953.82
2019-03-09T16:23:10.792Z,953.91
2019-03-09T16:25:37.111Z,953.90
2019-03-09T16:28:03.490Z,953.91
2019-03-09T16:30:29.752Z,953.86
2019-03-09T16:32:56.064Z,953.89
2019-03-09T16:35:22.371Z,953.84
2019-03-09T16:37:48.685Z,953.87
2019-03-09T16:40:15.002Z,953.89
2019-03-09T16:42:41.406Z,953.97
2019-03-09T16:45:07.712Z,954.02
2019-03-09T16:47:34.051Z,953.97
2019-03-09T16:50:00.352Z,953.98
2019-03-09T16:52:26.746Z,954.04
2019-03-09T16:54:53.057Z,954.01
2019-03-09T16:57:19.364Z,954.03
2019-03-09T16:59:45.732Z,954.05
2019-03-09T17:02:12.151Z,954.05
2019-03-09T17:04:38.519Z,954.17
2019-03-09T17:07:04.830Z,954.12
2019-03-09T17:09:31.144Z,954.12
2019-03-09T17:11:57.452Z,954.18
2019-03-09T17:14:23.760Z,954.21
2019-03-09T17:16:50.072Z,954.24
2019-03-09T17:19:16.394Z,954.32
2019-03-09T17:21:42.706Z,954.21
2019-03-09T17:24:09.014Z,954.26
2019-03-09T17:26:38.522Z,954.33
2019-03-09T17:29:05.281Z,954.35
2019-03-09T17:31:31.593Z,954.36
2019-03-09T17:33:57.925Z,954.68
2019-03-09T17:36:24.228Z,954.69
2019-03-09T17:38:50.537Z,954.87
2019-03-09T17:41:16.850Z,954.91
2019-03-09T17:43:43.165Z,954.98
2019-03-09T17:46:09.464Z,954.98
2019-03-09T17:48:35.808Z,955.10
2019-03-09T17:51:02.117Z,955.05
2019-03-09T17:53:28.450Z,955.07
2019-03-09T17:55:54.779Z,955.10
2019-03-09T17:58:21.104Z,955.11
2019-03-09T18:00:47.416Z,955.11
2019-03-09T18:03:13.739Z,955.14
2019-03-09T18:05:40.055Z,955.22
2019-03-09T18:08:06.362Z,955.22
2019-03-09T18:10:32.697Z,955.31
2019-03-09T18:12:59.030Z,955.35
2019-03-09T18:15:25.328Z,955.33
2019-03-09T18:17:51.641Z,955.41
2019-03-09T18:20:17.950Z,955.38
2019-03-09T18:22:44.260Z,955.28
2019-03-09T18:25:10.575Z,955.42
2019-03-09T18:27:36.934Z,955.32
2019-03-09T18:30:03.243Z,955.39
2019-03-09T18:32:29.600Z,955.40
2019-03-09T18:34:55.915Z,955.42
2019-03-09T18:37:22.222Z,955.34
2019-03-09T18:39:48.557Z,955.36
2019-03-09T18:42:14.864Z,955.35
2019-03-09T18:44:41.193Z,955.34
2019-03-09T18:47:07.506Z,955.32
2019-03-09T18:49:33.849Z,955.34
2019-03-09T18:52:00.156Z,955.37
2019-03-09T18:54:26.462Z,955.44
2019-03-09T18:56:52.771Z,955.44
2019-03-09T18:59:19.085Z,955.38
2019-03-09T19:01:45.408Z,955.40
2019-03-09T19:04:11.788Z,955.39
2019-03-09T19:06:38.102Z,955.38
2019-03-09T19:09:04.410Z,955.41
2019-03-09T19:11:30.740Z,955.42
2019-03-09T19:13:57.052Z,955.43
2019-03-09T19:16:23.358Z,955.47
2019-03-09T19:18:49.669Z,955.44
2019-03-09T19:21:15.975Z,955.45
2019-03-09T19:23:42.279Z,955.44
2019-03-09T19:26:08.589Z,955.40
2019-03-09T19:28:34.901Z,955.39
2019-03-09T19:31:01.221Z,955.33
2019-03-09T19:33:27.533Z,955.46
2019-03-09T19:35:53.841Z,955.46
2019-03-09T19:38:20.181Z,955.41
2019-03-09T19:40:46.505Z,955.44
2019-03-09T19:43:12.824Z,955.47
2019-03-09T19:45:39.147Z,955.46
2019-03-09T19:48:05.468Z,955.50
2019-03-09T19:50:31.781Z,955.51
2019-03-09T19:52:59.092Z,955.54
2019-03-09T19:55:24.414Z,955.53
2019-03-09T19:57:50.722Z,955.53
2019-03-09T20:00:17.035Z,955.49
2019-03-09T20:02:43.353Z,955.52
2019-03-09T20:05:09.661Z,955.45
2019-03-09T20:07:35.981Z,955.38
2019-03-09T20:10:02.303Z,955.35
2019-03-09T20:12:28.642Z,955.38
2019-03-09T20:14:54.947Z,955.40
2019-03-09T20:17:21.269Z,955.36
2019-03-09T20:19:47.578Z,955.39
2019-03-09T20:22:13.890Z,955.32
2019-03-09T20:24:40.252Z,955.34
2019-03-09T20:27:06.567Z,955.29
2019-03-09T20:29:32.880Z,955.32
2019-03-09T20:31:59.190Z,955.35
2019-03-09T20:34:25.514Z,955.31
2019-03-09T20:36:51.830Z,955.30
2019-03-09T20:39:18.131Z,955.31
2019-03-09T20:41:44.470Z,955.35
2019-03-09T20:44:10.783Z,955.33
2019-03-09T20:46:41.803Z,955.36
2019-03-09T20:49:03.424Z,955.31
2019-03-09T20:51:29.757Z,955.29
2019-03-09T20:53:56.066Z,955.31
2019-03-09T20:56:22.374Z,955.26
2019-03-09T20:58:48.695Z,955.25
2019-03-09T21:01:15.001Z,955.21
2019-03-09T21:03:41.319Z,955.23
2019-03-09T21:06:07.646Z,955.24
2019-03-09T21:08:34.001Z,955.14
2019-03-09T21:11:03.867Z,955.16
2019-03-09T21:13:26.568Z,955.15
2019-03-09T21:15:52.874Z,955.19
2019-03-09T21:18:19.183Z,955.13
2019-03-09T21:20:45.496Z,955.12
2019-03-09T21:23:11.820Z,955.18
2019-03-09T21:25:38.138Z,955.09
2019-03-09T21:28:04.447Z,955.23
2019-03-09T21:30:30.786Z,955.24
2019-03-09T21:32:57.097Z,955.16
2019-03-09T21:35:23.425Z,955.09
2019-03-09T21:37:49.739Z,955.03
2019-03-09T21:40:16.044Z,955.05
2019-03-09T21:42:42.363Z,954.92
2019-03-09T21:45:08.670Z,954.97
2019-03-09T21:47:34.976Z,954.97
2019-03-09T21:50:01.292Z,954.86
2019-03-09T21:52:27.607Z,954.92
2019-03-09T21:54:53.915Z,954.87
2019-03-09T21:57:20.231Z,954.92
2019-03-09T21:59:46.541Z,954.90
2019-03-09T22:02:12.849Z,954.92
2019-03-09T22:04:39.156Z,954.83
2019-03-09T22:07:05.472Z,954.85
2019-03-09T22:09:31.786Z,954.87
2019-03-09T22:11:58.133Z,954.92
2019-03-09T22:14:24.444Z,954.86
2019-03-09T22:16:56.534Z,954.84
2019-03-09T22:19:17.071Z,954.90
2019-03-09T22:21:43.381Z,954.92
2019-03-09T22:24:09.701Z,954.85
2019-03-09T22:26:36.012Z,954.81
2019-03-09T22:29:02.322Z,954.82
2019-03-09T22:31:28.631Z,954.75
2019-03-09T22:33:55.008Z,954.72
2019-03-09T22:36:21.316Z,954.73
2019-03-09T22:38:47.635Z,954.72
2019-03-09T22:41:13.945Z,954.80
2019-03-09T22:43:40.310Z,954.72
2019-03-09T22:46:06.622Z,954.71
2019-03-09T22:48:32.940Z,954.79
2019-03-09T22:50:59.239Z,954.74
2019-03-09T22:53:25.544Z,954.79
2019-03-09T22:55:51.861Z,954.82
2019-03-09T22:58:18.175Z,954.77
2019-03-09T23:00:44.492Z,954.77
2019-03-09T23:03:10.823Z,954.84
2019-03-09T23:05:37.139Z,954.79
2019-03-09T23:08:03.461Z,954.83
2019-03-09T23:10:29.784Z,954.88
2019-03-09T23:12:56.137Z,954.86
2019-03-09T23:15:22.442Z,954.87
2019-03-09T23:17:48.764Z,954.84
2019-03-09T23:20:15.071Z,954.81
2019-03-09T23:22:41.382Z,954.79
2019-03-09T23:25:07.690Z,954.84
2019-03-09T23:27:34.034Z,954.86
2019-03-09T23:30:00.389Z,954.87
2019-03-09T23:32:26.653Z,954.84
2019-03-09T23:34:52.959Z,954.81
2019-03-09T23:37:19.272Z,954.85
2019-03-09T23:39:45.613Z,954.83
2019-03-09T23:42:11.921Z,954.71
2019-03-09T23:44:38.233Z,954.65
2019-03-09T23:47:04.547Z,954.64
2019-03-09T23:49:30.934Z,954.69
2019-03-09T23:51:57.251Z,954.78
2019-03-09T23:54:23.555Z,954.76
2019-03-09T23:56:49.869Z,954.85
2019-03-09T23:59:16.182Z,954.82
